sensor_id;sensor_type;location;lat;lon;timestamp;temperature;humidity
26964;DHT22;14521;48.148;-1.656;2022-12-07T00:02:59;17.70;76.60
26964;DHT22;14521;48.148;-1.656;2022-12-07T00:06:21;17.60;76.40
26964;DHT22;14521;48.148;-1.656;2022-12-07T00:09:43;17.60;76.50
26964;DHT22;14521;48.148;-1.656;2022-12-07T00:13:06;17.60;76.40
26964;DHT22;14521;48.148;-1.656;2022-12-07T00:16:30;17.60;76.50
26964;DHT22;14521;48.148;-1.656;2022-12-07T00:19:53;17.60;76.40
26964;DHT22;14521;48.148;-1.656;2022-12-07T00:23:15;17.60;76.40
26964;DHT22;14521;48.148;-1.656;2022-12-07T00:26:38;17.60;76.20
26964;DHT22;14521;48.148;-1.656;2022-12-07T00:30:01;17.60;76.20
26964;DHT22;14521;48.148;-1.656;2022-12-07T00:33:25;17.60;76.10
26964;DHT22;14521;48.148;-1.656;2022-12-07T00:36:48;17.60;76.10
26964;DHT22;14521;48.148;-1.656;2022-12-07T00:40:11;17.60;76.10
26964;DHT22;14521;48.148;-1.656;2022-12-07T00:43:33;17.60;76.00
26964;DHT22;14521;48.148;-1.656;2022-12-07T00:46:56;17.60;76.60
26964;DHT22;14521;48.148;-1.656;2022-12-07T00:50:18;17.60;75.80
26964;DHT22;14521;48.148;-1.656;2022-12-07T00:53:40;17.60;75.80
26964;DHT22;14521;48.148;-1.656;2022-12-07T00:57:03;17.60;75.70
26964;DHT22;14521;48.148;-1.656;2022-12-07T01:00:25;17.60;75.80
26964;DHT22;14521;48.148;-1.656;2022-12-07T01:03:48;17.60;75.80
26964;DHT22;14521;48.148;-1.656;2022-12-07T01:07:10;17.60;75.70
26964;DHT22;14521;48.148;-1.656;2022-12-07T01:10:33;17.60;75.70
26964;DHT22;14521;48.148;-1.656;2022-12-07T01:13:56;17.60;75.70
26964;DHT22;14521;48.148;-1.656;2022-12-07T01:17:19;17.50;75.80
26964;DHT22;14521;48.148;-1.656;2022-12-07T01:20:41;17.50;75.60
26964;DHT22;14521;48.148;-1.656;2022-12-07T01:24:06;17.60;75.70
26964;DHT22;14521;48.148;-1.656;2022-12-07T01:27:28;17.60;75.60
26964;DHT22;14521;48.148;-1.656;2022-12-07T01:31:08;17.60;75.40
26964;DHT22;14521;48.148;-1.656;2022-12-07T01:34:33;17.60;75.40
26964;DHT22;14521;48.148;-1.656;2022-12-07T01:37:55;17.60;75.30
26964;DHT22;14521;48.148;-1.656;2022-12-07T01:41:18;17.60;75.40
26964;DHT22;14521;48.148;-1.656;2022-12-07T01:48:41;17.60;75.30
26964;DHT22;14521;48.148;-1.656;2022-12-07T01:52:21;17.60;75.20
26964;DHT22;14521;48.148;-1.656;2022-12-07T01:55:48;17.60;75.10
26964;DHT22;14521;48.148;-1.656;2022-12-07T01:59:12;17.60;75.10
26964;DHT22;14521;48.148;-1.656;2022-12-07T02:02:39;17.60;75.00
26964;DHT22;14521;48.148;-1.656;2022-12-07T02:06:05;17.60;75.00
26964;DHT22;14521;48.148;-1.656;2022-12-07T02:09:28;17.60;75.10
26964;DHT22;14521;48.148;-1.656;2022-12-07T02:21:00;17.70;75.00
26964;DHT22;14521;48.148;-1.656;2022-12-07T02:32:15;17.60;74.80
26964;DHT22;14521;48.148;-1.656;2022-12-07T02:35:43;17.60;74.80
26964;DHT22;14521;48.148;-1.656;2022-12-07T02:39:11;17.60;74.80
26964;DHT22;14521;48.148;-1.656;2022-12-07T02:42:42;17.60;74.70
26964;DHT22;14521;48.148;-1.656;2022-12-07T02:46:20;17.60;74.60
26964;DHT22;14521;48.148;-1.656;2022-12-07T02:49:43;17.60;74.60
26964;DHT22;14521;48.148;-1.656;2022-12-07T02:57:03;17.60;74.60
26964;DHT22;14521;48.148;-1.656;2022-12-07T03:00:31;17.60;74.50
26964;DHT22;14521;48.148;-1.656;2022-12-07T03:11:10;17.60;74.40
26964;DHT22;14521;48.148;-1.656;2022-12-07T03:18:37;17.50;74.30
26964;DHT22;14521;48.148;-1.656;2022-12-07T03:22:03;17.50;74.10
26964;DHT22;14521;48.148;-1.656;2022-12-07T03:25:28;17.50;74.00
26964;DHT22;14521;48.148;-1.656;2022-12-07T03:28:55;17.50;74.00
26964;DHT22;14521;48.148;-1.656;2022-12-07T03:32:43;17.40;71.60
26964;DHT22;14521;48.148;-1.656;2022-12-07T03:36:21;17.40;74.60
26964;DHT22;14521;48.148;-1.656;2022-12-07T03:39:59;17.40;74.60
26964;DHT22;14521;48.148;-1.656;2022-12-07T03:43:24;17.40;74.60
26964;DHT22;14521;48.148;-1.656;2022-12-07T03:47:13;17.30;74.60
26964;DHT22;14521;48.148;-1.656;2022-12-07T03:50:58;17.30;74.70
26964;DHT22;14521;48.148;-1.656;2022-12-07T03:54:25;17.30;74.60
26964;DHT22;14521;48.148;-1.656;2022-12-07T03:57:52;17.30;74.60
26964;DHT22;14521;48.148;-1.656;2022-12-07T04:01:17;17.20;74.50
26964;DHT22;14521;48.148;-1.656;2022-12-07T04:04:40;17.20;74.50
26964;DHT22;14521;48.148;-1.656;2022-12-07T04:08:03;17.20;74.40
26964;DHT22;14521;48.148;-1.656;2022-12-07T04:11:26;17.20;74.50
26964;DHT22;14521;48.148;-1.656;2022-12-07T04:14:48;17.10;74.40
26964;DHT22;14521;48.148;-1.656;2022-12-07T04:18:10;17.10;74.50
26964;DHT22;14521;48.148;-1.656;2022-12-07T04:21:33;17.10;74.50
26964;DHT22;14521;48.148;-1.656;2022-12-07T04:24:56;17.10;74.40
26964;DHT22;14521;48.148;-1.656;2022-12-07T04:28:19;17.10;74.50
26964;DHT22;14521;48.148;-1.656;2022-12-07T04:31:41;17.10;74.40
26964;DHT22;14521;48.148;-1.656;2022-12-07T04:35:04;17.10;74.40
26964;DHT22;14521;48.148;-1.656;2022-12-07T04:38:27;17.10;74.20
26964;DHT22;14521;48.148;-1.656;2022-12-07T04:41:49;17.10;74.00
26964;DHT22;14521;48.148;-1.656;2022-12-07T04:45:12;17.10;73.90
26964;DHT22;14521;48.148;-1.656;2022-12-07T04:48:34;17.10;73.90
26964;DHT22;14521;48.148;-1.656;2022-12-07T04:51:56;17.10;74.00
26964;DHT22;14521;48.148;-1.656;2022-12-07T04:55:19;17.10;73.90
26964;DHT22;14521;48.148;-1.656;2022-12-07T04:58:42;17.10;74.10
26964;DHT22;14521;48.148;-1.656;2022-12-07T05:02:04;17.10;74.20
26964;DHT22;14521;48.148;-1.656;2022-12-07T05:05:27;17.10;74.20
26964;DHT22;14521;48.148;-1.656;2022-12-07T05:08:49;17.10;74.00
26964;DHT22;14521;48.148;-1.656;2022-12-07T05:12:11;17.20;74.00
26964;DHT22;14521;48.148;-1.656;2022-12-07T05:15:34;17.20;73.80
26964;DHT22;14521;48.148;-1.656;2022-12-07T05:18:56;17.30;73.70
26964;DHT22;14521;48.148;-1.656;2022-12-07T05:22:18;17.30;73.50
26964;DHT22;14521;48.148;-1.656;2022-12-07T05:25:41;17.40;73.30
26964;DHT22;14521;48.148;-1.656;2022-12-07T05:29:03;17.40;73.10
26964;DHT22;14521;48.148;-1.656;2022-12-07T05:32:26;17.50;73.00
26964;DHT22;14521;48.148;-1.656;2022-12-07T05:35:48;17.60;73.00
26964;DHT22;14521;48.148;-1.656;2022-12-07T05:39:10;17.60;72.90
26964;DHT22;14521;48.148;-1.656;2022-12-07T05:42:33;17.60;72.80
26964;DHT22;14521;48.148;-1.656;2022-12-07T05:45:55;17.70;72.80
26964;DHT22;14521;48.148;-1.656;2022-12-07T05:49:18;17.70;72.70
26964;DHT22;14521;48.148;-1.656;2022-12-07T05:52:40;17.70;72.70
26964;DHT22;14521;48.148;-1.656;2022-12-07T05:56:02;17.70;72.60
26964;DHT22;14521;48.148;-1.656;2022-12-07T05:59:25;17.80;72.70
26964;DHT22;14521;48.148;-1.656;2022-12-07T06:02:49;17.80;72.60
26964;DHT22;14521;48.148;-1.656;2022-12-07T06:06:12;17.80;72.60
26964;DHT22;14521;48.148;-1.656;2022-12-07T06:09:34;17.80;72.60
26964;DHT22;14521;48.148;-1.656;2022-12-07T06:12:57;17.90;72.60
26964;DHT22;14521;48.148;-1.656;2022-12-07T06:16:19;17.90;72.60
26964;DHT22;14521;48.148;-1.656;2022-12-07T06:19:42;17.90;72.60
26964;DHT22;14521;48.148;-1.656;2022-12-07T06:23:04;17.90;72.80
26964;DHT22;14521;48.148;-1.656;2022-12-07T06:26:27;17.80;72.80
26964;DHT22;14521;48.148;-1.656;2022-12-07T06:29:49;17.80;72.90
26964;DHT22;14521;48.148;-1.656;2022-12-07T06:33:12;17.80;72.80
26964;DHT22;14521;48.148;-1.656;2022-12-07T06:36:34;17.80;72.90
26964;DHT22;14521;48.148;-1.656;2022-12-07T06:39:56;17.80;73.00
26964;DHT22;14521;48.148;-1.656;2022-12-07T06:43:19;17.80;72.90
26964;DHT22;14521;48.148;-1.656;2022-12-07T06:46:41;17.90;72.90
26964;DHT22;14521;48.148;-1.656;2022-12-07T06:50:04;17.90;73.00
26964;DHT22;14521;48.148;-1.656;2022-12-07T06:53:28;17.90;72.90
26964;DHT22;14521;48.148;-1.656;2022-12-07T06:56:50;17.90;73.00
26964;DHT22;14521;48.148;-1.656;2022-12-07T07:00:13;17.90;73.20
26964;DHT22;14521;48.148;-1.656;2022-12-07T07:03:44;17.90;73.20
26964;DHT22;14521;48.148;-1.656;2022-12-07T07:07:06;17.90;73.90
26964;DHT22;14521;48.148;-1.656;2022-12-07T07:10:28;18.10;73.00
26964;DHT22;14521;48.148;-1.656;2022-12-07T07:13:51;18.30;74.50
26964;DHT22;14521;48.148;-1.656;2022-12-07T07:17:13;18.30;73.30
26964;DHT22;14521;48.148;-1.656;2022-12-07T07:20:36;18.40;74.60
26964;DHT22;14521;48.148;-1.656;2022-12-07T07:23:59;18.40;73.10
26964;DHT22;14521;48.148;-1.656;2022-12-07T07:27:21;18.40;74.40
26964;DHT22;14521;48.148;-1.656;2022-12-07T07:30:43;18.50;74.40
26964;DHT22;14521;48.148;-1.656;2022-12-07T07:34:06;18.40;74.50
26964;DHT22;14521;48.148;-1.656;2022-12-07T07:37:28;18.40;72.50
26964;DHT22;14521;48.148;-1.656;2022-12-07T07:40:51;18.40;73.20
26964;DHT22;14521;48.148;-1.656;2022-12-07T07:44:13;18.40;74.20
26964;DHT22;14521;48.148;-1.656;2022-12-07T07:47:35;18.40;74.70
26964;DHT22;14521;48.148;-1.656;2022-12-07T07:50:58;18.40;73.20
26964;DHT22;14521;48.148;-1.656;2022-12-07T07:54:20;18.30;75.10
26964;DHT22;14521;48.148;-1.656;2022-12-07T07:57:42;18.20;73.30
26964;DHT22;14521;48.148;-1.656;2022-12-07T08:01:10;18.10;73.30
26964;DHT22;14521;48.148;-1.656;2022-12-07T08:04:33;18.00;73.20
26964;DHT22;14521;48.148;-1.656;2022-12-07T08:07:56;18.00;74.70
26964;DHT22;14521;48.148;-1.656;2022-12-07T08:11:19;18.00;74.40
26964;DHT22;14521;48.148;-1.656;2022-12-07T08:14:41;17.90;74.70
26964;DHT22;14521;48.148;-1.656;2022-12-07T08:18:04;17.90;74.70
26964;DHT22;14521;48.148;-1.656;2022-12-07T08:21:26;17.90;74.70
26964;DHT22;14521;48.148;-1.656;2022-12-07T08:24:49;17.90;73.70
26964;DHT22;14521;48.148;-1.656;2022-12-07T08:28:11;18.00;74.00
26964;DHT22;14521;48.148;-1.656;2022-12-07T08:31:36;18.10;74.10
26964;DHT22;14521;48.148;-1.656;2022-12-07T08:34:58;18.10;73.40
26964;DHT22;14521;48.148;-1.656;2022-12-07T08:38:20;18.00;73.60
26964;DHT22;14521;48.148;-1.656;2022-12-07T08:41:46;18.10;73.80
26964;DHT22;14521;48.148;-1.656;2022-12-07T08:45:13;18.10;73.90
26964;DHT22;14521;48.148;-1.656;2022-12-07T08:48:40;18.10;74.50
26964;DHT22;14521;48.148;-1.656;2022-12-07T08:52:05;18.10;73.80
26964;DHT22;14521;48.148;-1.656;2022-12-07T08:55:28;18.10;73.80
26964;DHT22;14521;48.148;-1.656;2022-12-07T08:58:51;18.10;73.50
26964;DHT22;14521;48.148;-1.656;2022-12-07T09:02:14;18.10;73.30
26964;DHT22;14521;48.148;-1.656;2022-12-07T09:05:36;18.20;73.30
26964;DHT22;14521;48.148;-1.656;2022-12-07T09:09:00;18.10;73.00
26964;DHT22;14521;48.148;-1.656;2022-12-07T09:12:23;18.10;73.60
26964;DHT22;14521;48.148;-1.656;2022-12-07T09:15:45;18.10;73.00
26964;DHT22;14521;48.148;-1.656;2022-12-07T09:19:08;18.00;72.90
26964;DHT22;14521;48.148;-1.656;2022-12-07T09:22:31;18.10;73.20
26964;DHT22;14521;48.148;-1.656;2022-12-07T09:25:53;18.10;73.00
26964;DHT22;14521;48.148;-1.656;2022-12-07T09:29:15;18.00;73.00
26964;DHT22;14521;48.148;-1.656;2022-12-07T09:32:38;18.10;73.10
26964;DHT22;14521;48.148;-1.656;2022-12-07T09:36:03;18.00;73.40
26964;DHT22;14521;48.148;-1.656;2022-12-07T09:39:25;18.00;73.40
26964;DHT22;14521;48.148;-1.656;2022-12-07T09:42:52;18.00;73.30
26964;DHT22;14521;48.148;-1.656;2022-12-07T09:46:17;18.00;73.40
26964;DHT22;14521;48.148;-1.656;2022-12-07T09:49:41;18.00;73.40
26964;DHT22;14521;48.148;-1.656;2022-12-07T09:53:10;18.00;73.40
26964;DHT22;14521;48.148;-1.656;2022-12-07T09:56:35;18.00;73.20
26964;DHT22;14521;48.148;-1.656;2022-12-07T10:00:03;18.00;73.60
26964;DHT22;14521;48.148;-1.656;2022-12-07T10:03:29;18.00;73.80
26964;DHT22;14521;48.148;-1.656;2022-12-07T10:06:51;18.00;73.90
26964;DHT22;14521;48.148;-1.656;2022-12-07T10:10:26;18.00;73.40
26964;DHT22;14521;48.148;-1.656;2022-12-07T10:13:51;18.10;72.40
26964;DHT22;14521;48.148;-1.656;2022-12-07T10:17:32;18.20;73.30
26964;DHT22;14521;48.148;-1.656;2022-12-07T10:21:12;18.20;73.60
26964;DHT22;14521;48.148;-1.656;2022-12-07T10:24:34;18.20;73.80
26964;DHT22;14521;48.148;-1.656;2022-12-07T10:28:10;18.20;73.50
26964;DHT22;14521;48.148;-1.656;2022-12-07T10:31:39;18.20;73.80
26964;DHT22;14521;48.148;-1.656;2022-12-07T10:35:26;18.20;73.60
26964;DHT22;14521;48.148;-1.656;2022-12-07T10:39:09;18.20;73.80
26964;DHT22;14521;48.148;-1.656;2022-12-07T10:42:32;18.20;73.00
26964;DHT22;14521;48.148;-1.656;2022-12-07T10:46:26;18.20;73.30
26964;DHT22;14521;48.148;-1.656;2022-12-07T10:53:53;18.30;73.30
26964;DHT22;14521;48.148;-1.656;2022-12-07T11:05:05;18.60;71.50
26964;DHT22;14521;48.148;-1.656;2022-12-07T11:12:16;18.70;71.10
26964;DHT22;14521;48.148;-1.656;2022-12-07T11:20:22;18.70;69.80
26964;DHT22;14521;48.148;-1.656;2022-12-07T11:27:40;19.00;71.80
26964;DHT22;14521;48.148;-1.656;2022-12-07T11:38:43;19.20;75.90
26964;DHT22;14521;48.148;-1.656;2022-12-07T11:42:27;19.20;76.10
26964;DHT22;14521;48.148;-1.656;2022-12-07T11:46:02;18.90;75.10
26964;DHT22;14521;48.148;-1.656;2022-12-07T11:50:05;18.90;75.80
26964;DHT22;14521;48.148;-1.656;2022-12-07T11:57:12;18.60;76.70
26964;DHT22;14521;48.148;-1.656;2022-12-07T12:00:41;18.50;77.00
26964;DHT22;14521;48.148;-1.656;2022-12-07T12:07:33;18.30;76.20
26964;DHT22;14521;48.148;-1.656;2022-12-07T12:22:17;18.10;76.90
26964;DHT22;14521;48.148;-1.656;2022-12-07T12:25:55;18.10;76.60
26964;DHT22;14521;48.148;-1.656;2022-12-07T12:29:37;18.20;76.10
26964;DHT22;14521;48.148;-1.656;2022-12-07T12:47:40;18.40;73.90
26964;DHT22;14521;48.148;-1.656;2022-12-07T12:55:02;18.40;73.40
26964;DHT22;14521;48.148;-1.656;2022-12-07T12:58:36;18.60;73.60
26964;DHT22;14521;48.148;-1.656;2022-12-07T13:05:45;19.00;71.70
26964;DHT22;14521;48.148;-1.656;2022-12-07T13:09:19;19.40;70.20
26964;DHT22;14521;48.148;-1.656;2022-12-07T13:12:43;20.10;68.20
26964;DHT22;14521;48.148;-1.656;2022-12-07T13:23:06;19.50;68.20
26964;DHT22;14521;48.148;-1.656;2022-12-07T13:26:42;18.90;70.20
26964;DHT22;14521;48.148;-1.656;2022-12-07T13:30:17;18.50;71.60
26964;DHT22;14521;48.148;-1.656;2022-12-07T13:33:43;18.30;72.40
26964;DHT22;14521;48.148;-1.656;2022-12-07T13:37:25;18.20;73.00
26964;DHT22;14521;48.148;-1.656;2022-12-07T13:41:21;18.00;72.90
26964;DHT22;14521;48.148;-1.656;2022-12-07T13:44:44;18.00;72.50
26964;DHT22;14521;48.148;-1.656;2022-12-07T13:48:08;17.20;67.10
26964;DHT22;14521;48.148;-1.656;2022-12-07T13:51:36;15.70;69.00
26964;DHT22;14521;48.148;-1.656;2022-12-07T13:58:22;14.20;73.00
26964;DHT22;14521;48.148;-1.656;2022-12-07T14:01:46;14.70;75.90
26964;DHT22;14521;48.148;-1.656;2022-12-07T14:05:13;15.50;75.70
26964;DHT22;14521;48.148;-1.656;2022-12-07T14:08:36;16.20;74.60
26964;DHT22;14521;48.148;-1.656;2022-12-07T14:11:58;16.50;73.50
26964;DHT22;14521;48.148;-1.656;2022-12-07T14:15:29;16.80;72.80
26964;DHT22;14521;48.148;-1.656;2022-12-07T14:18:52;17.10;72.50
26964;DHT22;14521;48.148;-1.656;2022-12-07T14:22:53;17.20;72.30
26964;DHT22;14521;48.148;-1.656;2022-12-07T14:26:20;17.30;72.10
26964;DHT22;14521;48.148;-1.656;2022-12-07T14:29:42;17.30;72.00
26964;DHT22;14521;48.148;-1.656;2022-12-07T14:33:05;17.40;72.00
26964;DHT22;14521;48.148;-1.656;2022-12-07T14:36:30;17.40;72.00
26964;DHT22;14521;48.148;-1.656;2022-12-07T14:39:52;17.40;71.90
26964;DHT22;14521;48.148;-1.656;2022-12-07T14:43:16;17.50;72.00
26964;DHT22;14521;48.148;-1.656;2022-12-07T14:46:38;17.50;72.00
26964;DHT22;14521;48.148;-1.656;2022-12-07T14:50:01;17.60;72.00
26964;DHT22;14521;48.148;-1.656;2022-12-07T14:53:35;17.60;72.00
26964;DHT22;14521;48.148;-1.656;2022-12-07T14:56:58;17.60;72.00
26964;DHT22;14521;48.148;-1.656;2022-12-07T15:00:22;17.60;72.00
26964;DHT22;14521;48.148;-1.656;2022-12-07T15:03:45;17.60;72.10
26964;DHT22;14521;48.148;-1.656;2022-12-07T15:07:19;17.60;72.00
26964;DHT22;14521;48.148;-1.656;2022-12-07T15:10:41;17.60;72.00
26964;DHT22;14521;48.148;-1.656;2022-12-07T15:14:04;17.70;72.10
26964;DHT22;14521;48.148;-1.656;2022-12-07T15:17:35;17.70;72.10
26964;DHT22;14521;48.148;-1.656;2022-12-07T15:20:57;17.70;72.10
26964;DHT22;14521;48.148;-1.656;2022-12-07T15:24:20;17.70;72.40
26964;DHT22;14521;48.148;-1.656;2022-12-07T15:27:43;17.60;72.70
26964;DHT22;14521;48.148;-1.656;2022-12-07T15:31:13;17.60;72.80
26964;DHT22;14521;48.148;-1.656;2022-12-07T15:34:55;17.60;73.00
26964;DHT22;14521;48.148;-1.656;2022-12-07T15:38:18;17.60;73.10
26964;DHT22;14521;48.148;-1.656;2022-12-07T15:42:00;17.60;73.50
26964;DHT22;14521;48.148;-1.656;2022-12-07T15:45:22;17.60;74.30
26964;DHT22;14521;48.148;-1.656;2022-12-07T15:48:45;17.60;74.20
26964;DHT22;14521;48.148;-1.656;2022-12-07T15:52:08;17.60;74.20
26964;DHT22;14521;48.148;-1.656;2022-12-07T15:55:30;17.60;74.30
26964;DHT22;14521;48.148;-1.656;2022-12-07T15:58:52;17.60;74.20
26964;DHT22;14521;48.148;-1.656;2022-12-07T16:02:15;17.60;74.20
26964;DHT22;14521;48.148;-1.656;2022-12-07T16:05:37;17.50;74.30
26964;DHT22;14521;48.148;-1.656;2022-12-07T16:09:00;17.60;74.30
26964;DHT22;14521;48.148;-1.656;2022-12-07T16:12:22;17.50;74.50
26964;DHT22;14521;48.148;-1.656;2022-12-07T16:15:45;17.50;74.40
26964;DHT22;14521;48.148;-1.656;2022-12-07T16:19:07;17.50;74.30
26964;DHT22;14521;48.148;-1.656;2022-12-07T16:22:30;17.50;74.40
26964;DHT22;14521;48.148;-1.656;2022-12-07T16:25:53;17.50;74.40
26964;DHT22;14521;48.148;-1.656;2022-12-07T16:29:16;17.40;74.30
26964;DHT22;14521;48.148;-1.656;2022-12-07T16:32:39;17.40;74.50
26964;DHT22;14521;48.148;-1.656;2022-12-07T16:36:02;17.40;74.50
26964;DHT22;14521;48.148;-1.656;2022-12-07T16:39:25;17.40;74.40
26964;DHT22;14521;48.148;-1.656;2022-12-07T16:42:47;17.40;74.40
26964;DHT22;14521;48.148;-1.656;2022-12-07T16:46:10;17.40;74.40
26964;DHT22;14521;48.148;-1.656;2022-12-07T16:49:32;17.40;75.40
26964;DHT22;14521;48.148;-1.656;2022-12-07T16:52:54;17.40;74.30
26964;DHT22;14521;48.148;-1.656;2022-12-07T16:56:17;17.40;74.60
26964;DHT22;14521;48.148;-1.656;2022-12-07T16:59:40;17.30;74.50
26964;DHT22;14521;48.148;-1.656;2022-12-07T17:03:03;17.30;74.40
26964;DHT22;14521;48.148;-1.656;2022-12-07T17:06:27;17.30;74.40
26964;DHT22;14521;48.148;-1.656;2022-12-07T17:09:49;17.30;74.40
26964;DHT22;14521;48.148;-1.656;2022-12-07T17:13:12;17.30;74.40
26964;DHT22;14521;48.148;-1.656;2022-12-07T17:16:53;17.30;74.30
26964;DHT22;14521;48.148;-1.656;2022-12-07T17:20:15;17.30;74.30
26964;DHT22;14521;48.148;-1.656;2022-12-07T17:23:38;17.30;74.80
26964;DHT22;14521;48.148;-1.656;2022-12-07T17:27:01;17.30;75.10
26964;DHT22;14521;48.148;-1.656;2022-12-07T17:30:23;17.40;74.70
26964;DHT22;14521;48.148;-1.656;2022-12-07T17:33:46;17.40;74.60
26964;DHT22;14521;48.148;-1.656;2022-12-07T17:37:08;17.40;74.60
26964;DHT22;14521;48.148;-1.656;2022-12-07T17:40:30;17.40;74.30
26964;DHT22;14521;48.148;-1.656;2022-12-07T17:43:53;17.40;74.80
26964;DHT22;14521;48.148;-1.656;2022-12-07T17:47:15;17.40;74.30
26964;DHT22;14521;48.148;-1.656;2022-12-07T17:50:39;17.30;74.50
26964;DHT22;14521;48.148;-1.656;2022-12-07T17:54:20;17.40;74.40
26964;DHT22;14521;48.148;-1.656;2022-12-07T17:57:43;17.30;74.40
26964;DHT22;14521;48.148;-1.656;2022-12-07T18:01:08;17.30;74.00
26964;DHT22;14521;48.148;-1.656;2022-12-07T18:04:31;17.30;74.40
26964;DHT22;14521;48.148;-1.656;2022-12-07T18:07:54;17.30;74.10
26964;DHT22;14521;48.148;-1.656;2022-12-07T18:11:16;17.40;74.10
26964;DHT22;14521;48.148;-1.656;2022-12-07T18:14:39;17.60;73.90
26964;DHT22;14521;48.148;-1.656;2022-12-07T18:18:01;17.70;73.90
26964;DHT22;14521;48.148;-1.656;2022-12-07T18:21:26;17.80;74.40
26964;DHT22;14521;48.148;-1.656;2022-12-07T18:24:48;17.80;74.70
26964;DHT22;14521;48.148;-1.656;2022-12-07T18:28:11;17.90;73.40
26964;DHT22;14521;48.148;-1.656;2022-12-07T18:31:34;18.00;76.00
26964;DHT22;14521;48.148;-1.656;2022-12-07T18:34:57;18.10;76.90
26964;DHT22;14521;48.148;-1.656;2022-12-07T18:38:19;18.10;76.60
26964;DHT22;14521;48.148;-1.656;2022-12-07T18:41:42;18.10;75.10
26964;DHT22;14521;48.148;-1.656;2022-12-07T18:45:05;18.20;77.40
26964;DHT22;14521;48.148;-1.656;2022-12-07T18:48:28;18.30;79.40
26964;DHT22;14521;48.148;-1.656;2022-12-07T18:51:51;18.30;82.00
26964;DHT22;14521;48.148;-1.656;2022-12-07T18:55:13;18.30;80.40
26964;DHT22;14521;48.148;-1.656;2022-12-07T18:58:35;18.30;78.90
26964;DHT22;14521;48.148;-1.656;2022-12-07T19:01:58;18.30;77.40
26964;DHT22;14521;48.148;-1.656;2022-12-07T19:05:21;18.40;78.30
26964;DHT22;14521;48.148;-1.656;2022-12-07T19:08:44;18.40;77.10
26964;DHT22;14521;48.148;-1.656;2022-12-07T19:12:10;18.40;80.60
26964;DHT22;14521;48.148;-1.656;2022-12-07T19:15:33;18.40;79.60
26964;DHT22;14521;48.148;-1.656;2022-12-07T19:18:55;18.50;76.50
26964;DHT22;14521;48.148;-1.656;2022-12-07T19:22:19;18.50;78.40
26964;DHT22;14521;48.148;-1.656;2022-12-07T19:25:42;18.50;79.10
26964;DHT22;14521;48.148;-1.656;2022-12-07T19:29:04;18.50;80.50
26964;DHT22;14521;48.148;-1.656;2022-12-07T19:32:27;18.50;81.20
26964;DHT22;14521;48.148;-1.656;2022-12-07T19:35:50;18.50;80.10
26964;DHT22;14521;48.148;-1.656;2022-12-07T19:39:13;18.50;76.60
26964;DHT22;14521;48.148;-1.656;2022-12-07T19:42:37;18.50;80.20
26964;DHT22;14521;48.148;-1.656;2022-12-07T19:46:06;18.60;78.00
26964;DHT22;14521;48.148;-1.656;2022-12-07T19:49:32;18.60;78.40
26964;DHT22;14521;48.148;-1.656;2022-12-07T19:52:54;18.60;78.00
26964;DHT22;14521;48.148;-1.656;2022-12-07T19:56:18;18.60;78.30
26964;DHT22;14521;48.148;-1.656;2022-12-07T19:59:41;18.50;77.00
26964;DHT22;14521;48.148;-1.656;2022-12-07T20:03:03;18.60;78.00
26964;DHT22;14521;48.148;-1.656;2022-12-07T20:06:26;18.60;77.40
26964;DHT22;14521;48.148;-1.656;2022-12-07T20:09:48;18.60;77.80
26964;DHT22;14521;48.148;-1.656;2022-12-07T20:13:10;18.60;74.70
26964;DHT22;14521;48.148;-1.656;2022-12-07T20:16:53;18.40;75.00
26964;DHT22;14521;48.148;-1.656;2022-12-07T20:20:15;18.50;81.10
26964;DHT22;14521;48.148;-1.656;2022-12-07T20:23:37;18.60;84.40
26964;DHT22;14521;48.148;-1.656;2022-12-07T20:27:00;18.50;81.30
26964;DHT22;14521;48.148;-1.656;2022-12-07T20:30:22;18.50;82.60
26964;DHT22;14521;48.148;-1.656;2022-12-07T20:33:45;18.40;82.90
26964;DHT22;14521;48.148;-1.656;2022-12-07T20:37:08;18.40;80.30
26964;DHT22;14521;48.148;-1.656;2022-12-07T20:40:30;18.40;80.70
26964;DHT22;14521;48.148;-1.656;2022-12-07T20:43:52;18.40;81.70
26964;DHT22;14521;48.148;-1.656;2022-12-07T20:47:15;18.30;81.50
26964;DHT22;14521;48.148;-1.656;2022-12-07T20:50:37;18.30;81.40
26964;DHT22;14521;48.148;-1.656;2022-12-07T20:54:03;18.30;81.10
26964;DHT22;14521;48.148;-1.656;2022-12-07T20:57:26;18.20;81.00
26964;DHT22;14521;48.148;-1.656;2022-12-07T21:00:48;18.20;81.50
26964;DHT22;14521;48.148;-1.656;2022-12-07T21:04:12;18.20;80.60
26964;DHT22;14521;48.148;-1.656;2022-12-07T21:07:35;18.20;80.60
26964;DHT22;14521;48.148;-1.656;2022-12-07T21:10:58;18.20;80.00
26964;DHT22;14521;48.148;-1.656;2022-12-07T21:14:20;18.20;80.00
26964;DHT22;14521;48.148;-1.656;2022-12-07T21:17:43;18.20;79.80
26964;DHT22;14521;48.148;-1.656;2022-12-07T21:21:06;18.20;79.50
26964;DHT22;14521;48.148;-1.656;2022-12-07T21:24:29;18.20;79.50
26964;DHT22;14521;48.148;-1.656;2022-12-07T21:27:51;18.20;79.20
26964;DHT22;14521;48.148;-1.656;2022-12-07T21:31:14;18.20;79.10
26964;DHT22;14521;48.148;-1.656;2022-12-07T21:34:37;18.20;77.90
26964;DHT22;14521;48.148;-1.656;2022-12-07T21:37:59;18.10;77.70
26964;DHT22;14521;48.148;-1.656;2022-12-07T21:41:26;18.10;77.70
26964;DHT22;14521;48.148;-1.656;2022-12-07T21:44:50;18.10;76.50
26964;DHT22;14521;48.148;-1.656;2022-12-07T21:48:12;18.20;75.10
26964;DHT22;14521;48.148;-1.656;2022-12-07T21:51:34;18.20;76.90
26964;DHT22;14521;48.148;-1.656;2022-12-07T21:54:57;18.00;75.20
26964;DHT22;14521;48.148;-1.656;2022-12-07T21:58:19;18.10;75.60
26964;DHT22;14521;48.148;-1.656;2022-12-07T22:01:43;18.10;75.10
26964;DHT22;14521;48.148;-1.656;2022-12-07T22:05:08;18.10;76.00
26964;DHT22;14521;48.148;-1.656;2022-12-07T22:08:30;18.10;76.90
26964;DHT22;14521;48.148;-1.656;2022-12-07T22:11:53;18.00;75.20
26964;DHT22;14521;48.148;-1.656;2022-12-07T22:15:15;18.00;76.00
26964;DHT22;14521;48.148;-1.656;2022-12-07T22:18:37;17.90;75.90
26964;DHT22;14521;48.148;-1.656;2022-12-07T22:22:00;17.90;75.70
26964;DHT22;14521;48.148;-1.656;2022-12-07T22:25:22;17.90;75.50
26964;DHT22;14521;48.148;-1.656;2022-12-07T22:28:45;17.90;75.70
26964;DHT22;14521;48.148;-1.656;2022-12-07T22:32:08;17.90;75.50
26964;DHT22;14521;48.148;-1.656;2022-12-07T22:35:53;17.90;75.70
26964;DHT22;14521;48.148;-1.656;2022-12-07T22:39:15;17.80;75.20
26964;DHT22;14521;48.148;-1.656;2022-12-07T22:42:38;17.90;75.10
26964;DHT22;14521;48.148;-1.656;2022-12-07T22:46:00;17.80;74.70
26964;DHT22;14521;48.148;-1.656;2022-12-07T22:49:23;17.80;74.70
26964;DHT22;14521;48.148;-1.656;2022-12-07T22:52:52;17.80;74.60
26964;DHT22;14521;48.148;-1.656;2022-12-07T22:56:16;17.80;74.80
26964;DHT22;14521;48.148;-1.656;2022-12-07T22:59:38;17.70;74.60
26964;DHT22;14521;48.148;-1.656;2022-12-07T23:03:01;17.70;74.30
26964;DHT22;14521;48.148;-1.656;2022-12-07T23:06:29;17.70;74.40
26964;DHT22;14521;48.148;-1.656;2022-12-07T23:09:52;17.70;74.30
26964;DHT22;14521;48.148;-1.656;2022-12-07T23:13:16;17.70;74.20